Time;durP1;ratioP1;P1;durP2;ratioP2;P2;SDS_P1;SDS_P2;PMS_P1;PMS_P2;Temp;Humidity;BMP_temperature;BMP_pressure;BME280_temperature;BME280_humidity;BME280_pressure;Samples;Min_cycle;Max_cycle;Signal;HPM_P1;HPM_P2
2021/05/10 00:01:23;;;;;;;4.50;4.10;;;19.40;99.90;;;;;;5028104;28;20295;-50
2021/05/10 00:03:49;;;;;;;4.03;3.63;;;19.20;1.00;;;;;;5026827;28;20205;-50
2021/05/10 00:06:16;;;;;;;4.73;3.73;;;19.30;1.00;;;;;;5027581;28;20641;-50
2021/05/10 00:08:43;;;;;;;6.47;4.00;;;19.20;1.00;;;;;;5031501;28;20228;-50
2021/05/10 00:11:10;;;;;;;4.30;3.53;;;19.20;26.10;;;;;;5028459;28;20367;-50
2021/05/10 00:13:41;;;;;;;4.00;3.50;;;19.20;99.90;;;;;;5027235;28;20741;-50
2021/05/10 00:16:08;;;;;;;3.90;3.50;;;19.20;1.00;;;;;;5027803;28;20339;-50
2021/05/10 00:18:35;;;;;;;4.47;3.63;;;19.10;1.00;;;;;;5032217;28;20225;-50
2021/05/10 00:21:03;;;;;;;5.63;3.30;;;19.20;1.00;;;;;;5027887;28;20641;-50
2021/05/10 00:23:29;;;;;;;5.33;3.47;;;19.10;1.00;;;;;;5025566;28;20214;-50
2021/05/10 00:25:55;;;;;;;7.80;4.90;;;19.20;1.00;;;;;;5031116;28;20228;-50
2021/05/10 00:28:23;;;;;;;4.40;3.97;;;19.20;1.00;;;;;;5029770;28;20618;-50
2021/05/10 00:30:49;;;;;;;6.93;4.23;;;19.20;99.90;;;;;;5026311;28;20215;-50
2021/05/10 00:33:16;;;;;;;5.80;4.37;;;19.20;1.00;;;;;;5029756;28;20310;-50
2021/05/10 00:35:42;;;;;;;7.60;4.43;;;19.20;1.00;;;;;;5032038;28;20259;-50
2021/05/10 00:38:09;;;;;;;5.90;4.83;;;19.20;1.00;;;;;;5027374;28;20367;-50
2021/05/10 00:40:36;;;;;;;7.00;4.77;;;19.20;99.90;;;;;;5032115;28;20202;-50
2021/05/10 00:43:02;;;;;;;4.97;4.47;;;19.20;99.90;;;;;;5030155;28;20374;-50
2021/05/10 00:45:29;;;;;;;5.03;4.53;;;19.30;1.00;;;;;;5027166;28;20292;-50
2021/05/10 00:47:56;;;;;;;7.87;5.43;;;19.20;1.00;;;;;;5030261;28;20239;-50
2021/05/10 00:50:23;;;;;;;5.73;5.03;;;19.10;1.00;;;;;;5030569;28;20216;-50
2021/05/10 00:52:50;;;;;;;9.63;5.67;;;19.00;98.30;;;;;;5028629;28;20686;-50
2021/05/10 00:55:17;;;;;;;6.40;5.03;;;19.10;99.90;;;;;;5025960;28;20202;-50
2021/05/10 00:57:51;;;;;;;6.20;5.20;;;19.10;99.90;;;;;;5029971;28;20288;-50
2021/05/10 01:00:20;;;;;;;6.73;5.33;;;19.10;99.90;;;;;;5027209;28;20864;-50
2021/05/10 01:02:46;;;;;;;6.53;4.73;;;19.10;1.00;;;;;;5024019;28;20297;-50
2021/05/10 01:05:14;;;;;;;7.13;5.07;;;19.10;1.00;;;;;;5027991;28;20298;-50
2021/05/10 01:07:41;;;;;;;5.93;5.20;;;18.90;99.90;;;;;;5030782;28;20293;-50
2021/05/10 01:10:16;;;;;;;6.23;5.20;;;18.90;1.00;;;;;;5028434;28;20389;-50
2021/05/10 01:12:43;;;;;;;9.73;5.20;;;18.80;99.90;;;;;;5031262;28;20302;-50
2021/05/10 01:15:12;;;;;;;9.17;5.37;;;18.70;1.00;;;;;;5031047;28;20647;-50
2021/05/10 01:17:39;;;;;;;8.00;4.83;;;18.70;1.00;;;;;;5031464;28;20279;-50
2021/05/10 01:20:08;;;;;;;11.10;5.10;;;18.60;1.00;;;;;;5028498;28;20205;-50
2021/05/10 01:22:45;;;;;;;8.50;5.10;;;18.60;1.00;;;;;;5030558;28;20213;-49
2021/05/10 01:25:15;;;;;;;5.87;5.30;;;18.60;99.90;;;;;;5030759;28;20301;-49
2021/05/10 01:27:43;;;;;;;7.20;5.13;;;18.70;99.90;;;;;;5030167;28;20709;-50
2021/05/10 01:30:22;;;;;;;8.47;5.53;;;18.80;99.90;;;;;;5028842;28;20800;-50
2021/05/10 01:32:50;;;;;;;5.87;5.23;;;18.80;35.60;;;;;;5031166;28;20247;-50
2021/05/10 01:35:20;;;;;;;5.83;5.03;;;18.70;99.90;;;;;;5030831;28;20284;-50
2021/05/10 01:37:47;;;;;;;8.23;6.00;;;18.80;99.90;;;;;;5034381;28;20310;-50
2021/05/10 01:40:14;;;;;;;6.87;5.13;;;18.70;1.00;;;;;;5035035;28;20659;-51
2021/05/10 01:42:41;;;;;;;8.67;6.00;;;18.40;1.00;;;;;;5034480;28;20260;-50
2021/05/10 01:45:09;;;;;;;12.53;5.90;;;18.40;1.00;;;;;;5032211;28;20242;-50
2021/05/10 01:47:35;;;;;;;6.33;5.73;;;18.40;1.00;;;;;;5035991;28;20247;-50
2021/05/10 01:50:28;;;;;;;6.87;5.97;;;18.40;1.00;;;;;;5035036;28;20733;-50
2021/05/10 01:52:55;;;;;;;8.40;6.20;;;18.40;1.00;;;;;;5032681;28;20221;-50
2021/05/10 01:55:25;;;;;;;7.17;5.70;;;18.50;1.00;;;;;;5033614;28;20664;-50
2021/05/10 01:57:55;;;;;;;10.20;6.23;;;18.40;1.00;;;;;;5037035;28;20284;-50
2021/05/10 02:00:32;;;;;;;7.53;6.50;;;18.40;1.00;;;;;;5033579;28;20670;-50
2021/05/10 02:03:11;;;;;;;7.73;5.70;;;18.40;1.00;;;;;;5033395;28;20347;-50
2021/05/10 02:05:37;;;;;;;7.23;5.53;;;18.40;1.00;;;;;;5035366;28;20290;-49
2021/05/10 02:08:06;;;;;;;9.50;6.07;;;18.40;1.00;;;;;;5035117;28;20263;-50
2021/05/10 02:10:48;;;;;;;8.10;5.17;;;18.40;1.00;;;;;;5034137;28;20599;-50
2021/05/10 02:13:19;;;;;;;6.47;5.63;;;18.40;99.90;;;;;;5037487;28;20305;-50
2021/05/10 02:15:57;;;;;;;7.63;5.20;;;18.40;99.90;;;;;;5029848;28;20553;-50
2021/05/10 02:18:27;;;;;;;7.57;5.97;;;18.30;99.90;;;;;;5034692;28;20206;-50
2021/05/10 02:20:54;;;;;;;6.53;5.70;;;18.40;1.00;;;;;;5035633;28;20541;-50
2021/05/10 02:23:23;;;;;;;8.83;6.77;;;18.40;1.00;;;;;;5032473;28;20212;-50
2021/05/10 02:25:52;;;;;;;7.67;6.53;;;18.30;99.90;;;;;;5036070;28;20248;-50
2021/05/10 02:28:20;;;;;;;7.37;6.27;;;18.30;99.90;;;;;;5035808;28;20451;-50
2021/05/10 02:30:47;;;;;;;7.80;6.27;;;18.30;99.90;;;;;;5031360;28;20237;-50
2021/05/10 02:33:17;;;;;;;6.57;5.97;;;18.30;1.00;;;;;;5032485;28;20253;-50
2021/05/10 02:35:45;;;;;;;6.40;5.80;;;18.30;1.00;;;;;;5039981;28;20245;-50
2021/05/10 02:38:12;;;;;;;7.77;6.07;;;18.20;1.00;;;;;;5033594;28;20238;-49
2021/05/10 02:40:39;;;;;;;6.70;6.00;;;18.30;1.00;;;;;;5035386;28;20289;-50
2021/05/10 02:43:06;;;;;;;6.47;5.77;;;18.30;1.00;;;;;;5029521;28;20543;-50
2021/05/10 02:45:32;;;;;;;6.33;5.70;;;18.30;99.90;;;;;;5028969;28;20228;-50
2021/05/10 02:47:59;;;;;;;7.20;5.20;;;18.30;99.90;;;;;;5032852;28;20237;-50
2021/05/10 02:50:27;;;;;;;6.73;5.37;;;18.30;99.90;;;;;;5029406;28;20204;-50
2021/05/10 02:52:54;;;;;;;6.13;4.67;;;18.30;99.90;;;;;;5032587;28;20312;-50
2021/05/10 02:55:20;;;;;;;4.67;4.17;;;18.30;1.00;;;;;;5030192;28;20616;-50
2021/05/10 02:57:48;;;;;;;4.63;3.90;;;18.30;1.00;;;;;;5033842;28;20284;-49
2021/05/10 03:00:18;;;;;;;6.40;3.90;;;18.40;1.00;;;;;;5035019;28;20280;-50
2021/05/10 03:02:45;;;;;;;6.17;4.37;;;18.50;1.00;;;;;;5031815;28;20293;-50
2021/05/10 03:05:13;;;;;;;3.90;3.50;;;18.40;1.00;;;;;;5033778;28;20196;-50
2021/05/10 03:07:40;;;;;;;5.97;3.30;;;18.40;99.90;;;;;;5033328;28;20244;-50
2021/05/10 03:10:09;;;;;;;4.23;3.20;;;18.50;1.00;;;;;;5036103;28;20265;-50
2021/05/10 03:12:36;;;;;;;2.50;2.30;;;18.50;99.90;;;;;;5031925;28;20206;-49
2021/05/10 03:15:08;;;;;;;3.07;2.20;;;18.50;1.00;;;;;;5031913;28;20599;-50
2021/05/10 03:17:35;;;;;;;4.60;1.97;;;18.60;1.00;;;;;;5032192;28;20276;-50
2021/05/10 03:20:07;;;;;;;3.70;1.83;;;18.70;99.90;;;;;;5034353;28;20198;-50
2021/05/10 03:22:33;;;;;;;1.77;1.30;;;18.80;99.90;;;;;;5028048;28;20198;-50
2021/05/10 03:24:59;;;;;;;2.60;1.20;;;19.00;1.00;;;;;;5034454;28;20614;-50
2021/05/10 03:27:26;;;;;;;1.73;1.13;;;19.10;99.90;;;;;;5031968;28;20269;-50
2021/05/10 03:29:52;;;;;;;3.13;1.30;;;19.20;99.90;;;;;;5028756;28;20228;-49
2021/05/10 03:32:18;;;;;;;2.17;1.33;;;19.30;99.90;;;;;;5030924;28;20568;-50
2021/05/10 03:34:45;;;;;;;1.80;1.10;;;19.30;99.90;;;;;;5032049;28;20305;-50
2021/05/10 03:37:11;;;;;;;1.10;1.07;;;19.40;1.00;;;;;;5033420;28;20199;-50
2021/05/10 03:39:38;;;;;;;1.60;1.40;;;19.50;1.00;;;;;;5029112;28;20232;-50
2021/05/10 03:42:05;;;;;;;2.63;0.97;;;19.50;1.00;;;;;;5032317;28;20257;-50
2021/05/10 03:44:31;;;;;;;2.27;1.17;;;19.50;1.00;;;;;;5031658;28;20292;-50
2021/05/10 03:46:58;;;;;;;2.93;1.53;;;19.60;1.00;;;;;;5034157;28;20613;-50
2021/05/10 03:49:24;;;;;;;1.53;1.03;;;19.60;1.00;;;;;;5031958;28;20749;-50
2021/05/10 03:51:50;;;;;;;1.83;1.20;;;19.60;1.00;;;;;;5028602;28;20236;-50
2021/05/10 03:54:16;;;;;;;1.20;1.10;;;19.60;1.00;;;;;;5028963;28;20259;-49
2021/05/10 03:56:43;;;;;;;3.07;1.40;;;19.60;1.00;;;;;;5033113;28;20309;-50
2021/05/10 03:59:09;;;;;;;2.20;1.33;;;19.60;1.00;;;;;;5032221;28;20243;-49
2021/05/10 04:01:36;;;;;;;3.00;1.23;;;19.80;1.00;;;;;;5032273;28;20231;-50
2021/05/10 04:04:29;;;;;;;0.83;0.83;;;19.80;1.00;;;;;;5030448;28;20224;-50
2021/05/10 04:09:52;;;;;;;4.33;1.30;;;19.80;1.00;;;;;;5032016;28;20695;-50
2021/05/10 04:15:22;;;;;;;2.10;0.83;;;19.90;1.00;;;;;;5029993;28;20357;-50
2021/05/10 04:17:48;;;;;;;3.20;1.07;;;19.90;1.00;;;;;;5030947;28;20726;-50
2021/05/10 04:20:15;;;;;;;1.53;1.20;;;20.00;1.00;;;;;;5031398;28;20566;-49
2021/05/10 04:22:41;;;;;;;1.83;1.20;;;20.00;1.00;;;;;;5029821;28;20284;-50
2021/05/10 04:25:08;;;;;;;2.83;1.33;;;20.10;1.00;;;;;;5032557;28;20288;-50
2021/05/10 04:27:34;;;;;;;3.77;1.10;;;20.10;1.00;;;;;;5034467;28;20262;-50
2021/05/10 04:30:00;;;;;;;1.27;0.90;;;20.10;1.00;;;;;;5026647;28;20759;-51
2021/05/10 04:32:27;;;;;;;1.60;1.00;;;20.10;1.00;;;;;;5029534;28;20202;-50
2021/05/10 04:34:54;;;;;;;2.30;1.30;;;20.00;1.00;;;;;;5031972;28;20495;-50
2021/05/10 04:37:21;;;;;;;4.17;1.60;;;19.90;1.00;;;;;;5032500;28;20241;-50
2021/05/10 04:39:47;;;;;;;4.77;1.60;;;19.70;52.40;;;;;;5031600;28;20347;-50
2021/05/10 04:42:13;;;;;;;4.37;1.23;;;19.60;99.90;;;;;;5027408;28;20340;-50
2021/05/10 04:44:40;;;;;;;3.37;1.10;;;19.50;1.00;;;;;;5029233;28;20342;-50
2021/05/10 04:47:06;;;;;;;3.13;1.20;;;19.30;1.00;;;;;;5030679;28;20301;-50
2021/05/10 04:49:32;;;;;;;3.33;1.73;;;19.10;99.90;;;;;;5029345;28;20376;-50
2021/05/10 04:51:59;;;;;;;2.80;1.47;;;19.10;1.00;;;;;;5031181;28;20207;-50
2021/05/10 04:54:25;;;;;;;3.47;1.67;;;18.90;1.00;;;;;;5029062;28;20240;-50
2021/05/10 04:56:52;;;;;;;5.13;1.57;;;18.80;99.90;;;;;;5031188;28;20243;-50
2021/05/10 04:59:19;;;;;;;1.60;1.37;;;18.70;99.90;;;;;;5030437;28;20259;-50
2021/05/10 05:01:45;;;;;;;3.60;1.40;;;18.60;1.00;;;;;;5028892;28;20197;-50
2021/05/10 05:04:11;;;;;;;3.63;1.23;;;18.50;42.00;;;;;;5027732;28;20325;-50
2021/05/10 05:06:37;;;;;;;3.77;1.40;;;18.40;1.00;;;;;;5032706;28;20323;-50
2021/05/10 05:09:04;;;;;;;1.43;1.33;;;18.30;1.00;;;;;;5030122;28;20284;-50
2021/05/10 05:11:30;;;;;;;2.77;1.43;;;18.30;99.90;;;;;;5033352;28;20260;-50
2021/05/10 05:13:57;;;;;;;5.73;1.23;;;18.20;1.00;;;;;;5034400;28;20214;-49
2021/05/10 05:16:24;;;;;;;2.13;1.30;;;18.30;1.00;;;;;;5033769;28;23147;-50
2021/05/10 05:18:50;;;;;;;4.20;1.40;;;18.20;1.00;;;;;;5034740;28;20208;-50
2021/05/10 05:21:16;;;;;;;2.43;1.30;;;18.10;1.00;;;;;;5034190;28;20635;-50
2021/05/10 05:23:43;;;;;;;2.67;1.47;;;18.00;1.00;;;;;;5034170;28;20204;-50
2021/05/10 05:26:09;;;;;;;3.13;1.60;;;18.00;1.00;;;;;;5037823;28;20231;-49
2021/05/10 05:28:35;;;;;;;2.53;1.63;;;17.80;1.00;;;;;;5033953;28;20322;-50
2021/05/10 05:31:02;;;;;;;2.50;1.20;;;17.60;99.90;;;;;;5032888;28;20297;-50
2021/05/10 05:33:29;;;;;;;0.73;0.73;;;17.40;1.00;;;;;;5030776;28;20217;-49
2021/05/10 05:35:55;;;;;;;3.03;1.30;;;17.30;1.00;;;;;;5035370;28;20622;-50
2021/05/10 05:38:22;;;;;;;2.10;1.20;;;17.20;99.90;;;;;;5035402;28;20234;-50
2021/05/10 05:40:49;;;;;;;2.33;0.87;;;17.10;7.40;;;;;;5031209;28;20196;-50
2021/05/10 05:43:16;;;;;;;2.40;1.20;;;17.10;1.00;;;;;;5031576;28;20292;-49
2021/05/10 05:45:43;;;;;;;1.47;1.13;;;17.10;1.00;;;;;;5032904;28;20226;-50
2021/05/10 05:48:11;;;;;;;2.93;1.30;;;17.10;99.90;;;;;;5034667;28;20218;-50
2021/05/10 05:50:39;;;;;;;1.77;1.03;;;17.20;1.00;;;;;;5035520;28;20226;-50
2021/05/10 05:53:06;;;;;;;1.80;0.93;;;17.20;1.00;;;;;;5032919;28;20308;-50
2021/05/10 05:55:33;;;;;;;1.77;1.30;;;17.20;1.00;;;;;;5031882;28;20399;-49
2021/05/10 05:58:01;;;;;;;2.97;1.03;;;17.20;1.00;;;;;;5032141;28;20202;-49
2021/05/10 06:00:27;;;;;;;1.00;0.83;;;17.20;1.00;;;;;;5030946;28;20945;-49
2021/05/10 06:02:54;;;;;;;1.90;1.10;;;17.20;1.00;;;;;;5033789;28;20663;-50
2021/05/10 06:05:20;;;;;;;3.13;1.13;;;17.20;99.90;;;;;;5029607;28;20260;-49
2021/05/10 06:07:50;;;;;;;2.07;1.30;;;17.20;43.30;;;;;;5032243;28;20196;-50
2021/05/10 06:10:22;;;;;;;0.87;0.70;;;17.30;99.90;;;;;;5032952;28;20226;-49
2021/05/10 06:12:50;;;;;;;2.13;0.90;;;17.30;99.90;;;;;;5033751;28;20216;-49
2021/05/10 06:15:18;;;;;;;0.90;0.50;;;17.30;1.00;;;;;;5033561;28;20339;-49
2021/05/10 06:17:45;;;;;;;1.77;0.53;;;17.10;1.00;;;;;;5035569;28;20298;-50
2021/05/10 06:20:12;;;;;;;3.83;0.80;;;17.10;99.90;;;;;;5036329;28;20194;-49
2021/05/10 06:22:40;;;;;;;1.97;0.60;;;17.10;99.90;;;;;;5031373;28;20350;-50
2021/05/10 06:25:12;;;;;;;0.40;0.40;;;17.20;1.00;;;;;;5033093;28;20685;-49
2021/05/10 06:27:38;;;;;;;0.50;0.50;;;17.20;99.90;;;;;;5027546;28;20226;-50
2021/05/10 06:30:06;;;;;;;0.60;0.50;;;17.10;1.00;;;;;;5035505;28;20287;-50
2021/05/10 06:32:33;;;;;;;1.10;0.80;;;17.10;1.00;;;;;;5032350;28;20224;-49
2021/05/10 06:35:01;;;;;;;0.70;0.70;;;17.10;1.00;;;;;;5033142;28;20218;-50
2021/05/10 06:37:29;;;;;;;0.70;0.60;;;17.20;1.00;;;;;;5033736;28;20614;-50
2021/05/10 06:39:56;;;;;;;0.63;0.63;;;17.20;1.00;;;;;;5033405;28;20228;-50
2021/05/10 06:42:23;;;;;;;0.50;0.50;;;17.30;1.00;;;;;;5031876;28;20211;-49
2021/05/10 06:44:51;;;;;;;0.80;0.70;;;17.30;1.00;;;;;;5032339;28;20659;-50
2021/05/10 06:47:17;;;;;;;2.00;1.00;;;17.20;1.00;;;;;;5026595;28;20261;-50
2021/05/10 06:49:44;;;;;;;0.80;0.80;;;17.30;1.00;;;;;;5033856;28;20285;-49
2021/05/10 06:52:10;;;;;;;1.37;0.70;;;17.30;1.00;;;;;;5026087;28;20292;-49
2021/05/10 06:54:36;;;;;;;2.10;0.80;;;17.30;1.00;;;;;;5029736;28;20333;-50
2021/05/10 06:57:03;;;;;;;0.77;0.70;;;17.30;1.00;;;;;;5033155;28;20211;-50
2021/05/10 06:59:29;;;;;;;2.87;1.00;;;17.20;1.00;;;;;;5031017;28;20223;-49
2021/05/10 07:01:55;;;;;;;1.37;1.03;;;17.10;1.00;;;;;;5030521;28;20211;-50
2021/05/10 07:04:24;;;;;;;1.30;0.87;;;17.10;1.00;;;;;;5029489;28;20257;-50
2021/05/10 07:06:50;;;;;;;2.40;1.50;;;17.10;53.00;;;;;;5033378;28;20230;-50
2021/05/10 07:09:17;;;;;;;2.57;0.90;;;17.20;1.00;;;;;;5033046;28;20253;-49
2021/05/10 07:11:43;;;;;;;1.83;0.80;;;17.10;99.90;;;;;;5033932;28;20237;-50
2021/05/10 07:14:09;;;;;;;0.97;0.87;;;17.10;1.00;;;;;;5030526;28;20217;-50
2021/05/10 07:16:35;;;;;;;1.17;1.07;;;17.20;99.90;;;;;;5030162;28;20289;-49
2021/05/10 07:19:02;;;;;;;1.10;0.70;;;17.20;86.40;;;;;;5032236;28;20239;-49
2021/05/10 07:21:28;;;;;;;2.57;1.00;;;17.30;1.00;;;;;;5030532;28;20203;-50
2021/05/10 07:23:55;;;;;;;2.50;0.90;;;17.30;1.00;;;;;;5030060;28;20206;-50
2021/05/10 07:26:21;;;;;;;1.00;0.70;;;17.20;84.20;;;;;;5032148;28;20366;-50
2021/05/10 07:28:48;;;;;;;1.37;0.93;;;17.20;99.90;;;;;;5033579;28;20211;-49
2021/05/10 07:31:14;;;;;;;1.10;0.80;;;17.20;1.00;;;;;;5030759;28;20559;-49
2021/05/10 07:33:41;;;;;;;1.10;1.00;;;17.10;1.00;;;;;;5027317;28;20602;-50
2021/05/10 07:36:08;;;;;;;0.80;0.77;;;16.90;1.00;;;;;;5029318;28;20302;-50
2021/05/10 07:38:35;;;;;;;1.90;0.80;;;16.90;1.00;;;;;;5031572;28;20258;-49
2021/05/10 07:41:01;;;;;;;1.07;0.80;;;16.90;1.00;;;;;;5033688;28;20639;-49
2021/05/10 07:43:27;;;;;;;1.20;0.70;;;16.90;1.00;;;;;;5031673;28;20256;-50
2021/05/10 07:45:54;;;;;;;0.57;0.50;;;16.80;1.00;;;;;;5034811;28;20254;-50
2021/05/10 07:48:20;;;;;;;0.87;0.73;;;16.80;99.90;;;;;;5026696;28;20425;-49
2021/05/10 07:50:46;;;;;;;0.93;0.80;;;16.80;1.00;;;;;;5033022;28;20207;-50
2021/05/10 07:53:13;;;;;;;0.97;0.93;;;16.80;1.00;;;;;;5031867;28;20720;-50
2021/05/10 07:55:40;;;;;;;1.00;0.83;;;16.80;1.00;;;;;;5032345;28;20230;-50
2021/05/10 07:58:06;;;;;;;1.13;0.90;;;16.70;99.90;;;;;;5031948;28;20270;-50
2021/05/10 08:00:41;;;;;;;1.40;0.87;;;16.70;1.00;;;;;;5030943;28;20567;-50
2021/05/10 08:03:09;;;;;;;3.23;0.90;;;16.70;99.90;;;;;;5030818;28;20269;-51
2021/05/10 08:05:38;;;;;;;1.57;1.10;;;16.70;1.00;;;;;;5029107;28;20502;-50
2021/05/10 08:08:06;;;;;;;1.33;0.97;;;16.80;99.90;;;;;;5031892;28;20205;-50
2021/05/10 08:10:33;;;;;;;2.20;0.80;;;16.80;1.00;;;;;;5032224;28;20263;-51
2021/05/10 08:12:59;;;;;;;0.80;0.77;;;16.90;1.00;;;;;;5028696;28;20202;-51
2021/05/10 08:15:25;;;;;;;1.67;1.10;;;17.00;1.00;;;;;;5031644;28;20300;-50
2021/05/10 08:17:52;;;;;;;0.90;0.80;;;17.00;1.00;;;;;;5027914;28;20580;-50
2021/05/10 08:20:38;;;;;;;1.20;1.00;;;17.00;80.50;;;;;;5031010;28;20211;-50
2021/05/10 08:23:05;;;;;;;1.43;1.00;;;17.00;1.00;;;;;;5030258;28;20230;-50
2021/05/10 08:25:31;;;;;;;1.40;1.13;;;17.10;1.00;;;;;;5029176;28;20572;-50
2021/05/10 08:27:58;;;;;;;3.40;1.33;;;17.10;1.00;;;;;;5028157;28;20675;-50
2021/05/10 08:30:24;;;;;;;2.67;1.40;;;17.00;99.90;;;;;;5027833;28;20274;-49
2021/05/10 08:32:51;;;;;;;1.57;1.43;;;17.10;1.00;;;;;;5026581;28;20205;-50
2021/05/10 08:35:18;;;;;;;4.80;1.60;;;17.20;1.00;;;;;;5029463;28;20270;-50
2021/05/10 08:37:44;;;;;;;1.60;1.50;;;17.00;99.90;;;;;;5034400;28;20193;-50
2021/05/10 08:40:11;;;;;;;1.90;1.67;;;17.00;1.00;;;;;;5027826;28;20352;-50
2021/05/10 08:42:37;;;;;;;1.57;1.47;;;17.00;1.00;;;;;;5030971;28;20296;-49
2021/05/10 08:45:05;;;;;;;2.30;1.87;;;16.90;1.00;;;;;;5029852;28;20261;-50
2021/05/10 08:47:32;;;;;;;1.40;1.30;;;16.90;99.90;;;;;;5028545;28;20902;-51
2021/05/10 08:50:00;;;;;;;2.20;2.00;;;16.90;99.90;;;;;;5037617;28;20218;-50
2021/05/10 08:52:27;;;;;;;3.20;2.30;;;16.90;14.60;;;;;;5036559;28;20517;-49
2021/05/10 08:54:54;;;;;;;2.27;2.17;;;16.90;99.90;;;;;;5031083;28;20220;-49
2021/05/10 08:57:20;;;;;;;3.07;2.00;;;16.80;1.00;;;;;;5039318;28;20279;-49
2021/05/10 08:59:47;;;;;;;2.40;2.20;;;16.80;1.00;;;;;;5033941;28;20272;-49
2021/05/10 09:02:13;;;;;;;4.33;2.10;;;16.80;99.90;;;;;;5031245;28;20253;-50
2021/05/10 09:04:42;;;;;;;2.20;2.00;;;16.80;1.00;;;;;;5032634;28;20316;-52
2021/05/10 09:07:13;;;;;;;2.00;1.80;;;16.80;1.00;;;;;;5035543;28;20262;-50
2021/05/10 09:09:59;;;;;;;2.27;1.70;;;16.80;1.00;;;;;;5030059;28;20208;-49
2021/05/10 09:12:51;;;;;;;2.10;1.97;;;16.70;1.00;;;;;;5027660;28;20794;-50
2021/05/10 09:15:31;;;;;;;2.40;1.70;;;16.60;1.00;;;;;;5029625;28;20644;-49
2021/05/10 09:18:02;;;;;;;2.53;2.00;;;16.70;1.00;;;;;;5037405;28;20234;-50
2021/05/10 09:20:31;;;;;;;1.90;1.70;;;16.70;99.90;;;;;;5038925;28;20225;-50
2021/05/10 09:23:01;;;;;;;2.20;2.00;;;16.60;99.90;;;;;;5036233;28;20220;-51
2021/05/10 09:25:38;;;;;;;2.50;2.20;;;16.40;99.90;;;;;;5035460;28;20197;-50
2021/05/10 09:28:14;;;;;;;2.90;2.60;;;16.10;1.00;;;;;;5036106;28;20638;-50
2021/05/10 09:30:42;;;;;;;3.00;2.70;;;16.10;99.90;;;;;;5034497;28;20199;-50
2021/05/10 09:33:27;;;;;;;2.87;2.67;;;16.10;1.00;;;;;;5033914;28;20228;-49
2021/05/10 09:35:58;;;;;;;3.00;2.20;;;16.10;1.00;;;;;;5031427;28;20655;-50
2021/05/10 09:38:27;;;;;;;2.40;2.20;;;16.00;1.00;;;;;;5037963;28;20687;-50
2021/05/10 09:40:54;;;;;;;2.50;2.30;;;15.80;1.00;;;;;;5033898;28;20249;-50
2021/05/10 09:43:26;;;;;;;2.57;2.33;;;15.80;19.30;;;;;;5030127;28;20206;-50
2021/05/10 09:45:59;;;;;;;2.83;2.27;;;15.80;6.30;;;;;;5032781;28;20192;-50
2021/05/10 09:48:35;;;;;;;2.87;2.43;;;15.80;54.60;;;;;;5030980;28;20210;-50
2021/05/10 09:51:03;;;;;;;3.90;2.53;;;16.10;1.00;;;;;;5033161;28;20227;-50
2021/05/10 09:53:43;;;;;;;2.93;2.73;;;16.10;42.80;;;;;;5030925;28;20323;-50
2021/05/10 09:58:53;;;;;;;2.80;2.50;;;16.00;99.90;;;;;;5028975;28;20266;-51
2021/05/10 10:01:20;;;;;;;5.27;2.27;;;16.00;99.90;;;;;;5030501;28;20732;-50
2021/05/10 10:03:58;;;;;;;2.80;2.50;;;16.00;99.90;;;;;;5031553;28;20669;-50
2021/05/10 10:06:28;;;;;;;3.57;2.33;;;15.90;99.90;;;;;;5031790;28;20276;-50
2021/05/10 10:08:55;;;;;;;3.80;2.30;;;16.00;99.90;;;;;;5033273;28;20201;-50
2021/05/10 10:11:23;;;;;;;3.90;2.13;;;16.00;99.90;;;;;;5027781;28;20213;-51
2021/05/10 10:13:51;;;;;;;3.37;2.20;;;16.00;99.90;;;;;;5031875;28;20304;-50
2021/05/10 10:16:22;;;;;;;2.87;2.17;;;16.00;56.70;;;;;;5031054;28;20302;-50
2021/05/10 10:18:49;;;;;;;2.70;2.10;;;16.00;42.70;;;;;;5032795;28;20224;-50
2021/05/10 10:21:18;;;;;;;2.20;2.00;;;16.00;99.90;;;;;;5033633;28;20232;-51
2021/05/10 10:24:15;;;;;;;4.80;1.90;;;15.70;99.90;;;;;;5031699;28;20279;-50
2021/05/10 10:27:02;;;;;;;5.67;2.00;;;15.60;99.90;;;;;;5033503;28;20251;-50
2021/05/10 10:29:31;;;;;;;4.70;3.07;;;15.40;99.90;;;;;;5032742;28;20660;-50
2021/05/10 10:32:00;;;;;;;4.00;2.77;;;15.20;99.90;;;;;;5031167;28;20569;-50
2021/05/10 10:34:30;;;;;;;3.47;3.00;;;14.90;99.90;;;;;;5032423;28;20391;-50
2021/05/10 10:37:01;;;;;;;3.43;3.00;;;15.00;99.90;;;;;;5032310;28;20213;-50
2021/05/10 10:39:33;;;;;;;4.17;3.20;;;14.90;99.90;;;;;;5031244;28;20412;-50
2021/05/10 10:42:04;;;;;;;4.47;3.60;;;14.90;99.90;;;;;;5031768;28;20200;-50
2021/05/10 10:44:47;;;;;;;5.20;3.30;;;15.10;99.90;;;;;;5032191;28;20216;-50
2021/05/10 10:47:18;;;;;;;4.33;3.30;;;15.00;99.90;;;;;;5032234;28;20278;-50
2021/05/10 10:49:46;;;;;;;3.33;3.03;;;15.00;99.90;;;;;;5031934;28;20946;-50
2021/05/10 10:52:24;;;;;;;2.80;2.60;;;14.80;99.90;;;;;;5030143;28;20291;-51
2021/05/10 10:55:44;;;;;;;2.87;2.57;;;14.60;99.90;;;;;;5031500;28;20223;-50
2021/05/10 10:58:21;;;;;;;3.90;2.17;;;14.70;99.90;;;;;;5031321;28;20197;-50
2021/05/10 11:00:56;;;;;;;2.83;2.50;;;14.80;99.90;;;;;;5030314;28;20207;-50
2021/05/10 11:03:23;;;;;;;2.60;2.40;;;14.90;99.90;;;;;;5030807;28;20206;-50
2021/05/10 11:05:50;;;;;;;3.80;2.43;;;15.30;99.90;;;;;;5031187;28;20698;-50
2021/05/10 11:08:16;;;;;;;4.10;2.67;;;15.80;99.90;;;;;;5030489;28;20284;-50
2021/05/10 11:10:49;;;;;;;3.93;2.67;;;16.20;99.90;;;;;;5030720;28;20326;-50
2021/05/10 11:13:28;;;;;;;2.90;2.50;;;16.40;99.90;;;;;;5030353;28;20200;-50
2021/05/10 11:15:58;;;;;;;5.07;2.10;;;15.90;99.90;;;;;;5030120;28;20202;-50
2021/05/10 11:18:37;;;;;;;4.23;2.30;;;15.90;99.90;;;;;;5030912;28;20198;-50
2021/05/10 11:21:06;;;;;;;4.10;2.33;;;15.90;99.90;;;;;;5031172;28;20297;-51
2021/05/10 11:23:35;;;;;;;2.90;2.40;;;15.60;99.90;;;;;;5031584;28;20272;-50
2021/05/10 11:26:07;;;;;;;3.10;2.43;;;16.00;99.90;;;;;;5031486;28;20291;-50
2021/05/10 11:28:33;;;;;;;3.07;2.60;;;16.50;99.90;;;;;;5032075;28;20310;-50
2021/05/10 11:31:14;;;;;;;3.70;2.70;;;17.00;99.90;;;;;;5034484;28;20914;-51
2021/05/10 11:33:52;;;;;;;3.03;2.73;;;17.20;99.90;;;;;;5033614;28;20218;-50
2021/05/10 11:36:23;;;;;;;3.20;2.90;;;17.50;1.00;;;;;;5029720;28;20221;-49
2021/05/10 11:39:10;;;;;;;3.90;3.13;;;17.80;77.00;;;;;;5030411;28;20277;-49
2021/05/10 11:41:42;;;;;;;6.83;3.20;;;18.30;1.00;;;;;;5030027;28;20304;-49
2021/05/10 11:44:11;;;;;;;4.30;3.30;;;18.60;1.00;;;;;;5028763;28;20651;-49
2021/05/10 11:46:44;;;;;;;3.73;3.17;;;18.70;1.00;;;;;;5028577;28;20243;-49
2021/05/10 11:49:34;;;;;;;4.83;3.20;;;18.40;1.00;;;;;;5029883;28;20724;-50
2021/05/10 11:52:08;;;;;;;3.30;3.00;;;18.90;1.00;;;;;;5031552;28;20295;-50
2021/05/10 11:54:35;;;;;;;4.13;2.73;;;19.30;1.00;;;;;;5034422;28;20225;-50
2021/05/10 11:57:04;;;;;;;3.37;3.00;;;19.30;99.90;;;;;;5032597;28;20196;-50
2021/05/10 11:59:47;;;;;;;6.37;3.40;;;19.10;1.00;;;;;;5031487;28;20573;-50
2021/05/10 12:02:17;;;;;;;4.80;3.07;;;18.50;1.00;;;;;;5026562;28;20585;-50
2021/05/10 12:04:49;;;;;;;4.57;3.20;;;18.30;99.90;;;;;;5030380;28;20204;-50
2021/05/10 12:07:17;;;;;;;4.13;3.07;;;18.40;99.90;;;;;;5027767;28;20332;-50
2021/05/10 12:10:04;;;;;;;3.77;3.33;;;18.30;99.90;;;;;;5027220;28;20287;-52
2021/05/10 12:12:47;;;;;;;4.93;2.73;;;18.30;1.00;;;;;;5028936;28;20294;-50
2021/05/10 12:15:25;;;;;;;3.07;2.77;;;18.40;1.00;;;;;;5029797;28;20376;-50
2021/05/10 12:17:54;;;;;;;4.40;2.60;;;18.30;1.00;;;;;;5028173;28;20242;-50
2021/05/10 12:20:25;;;;;;;3.77;3.03;;;18.00;99.90;;;;;;5031211;28;20288;-51
2021/05/10 12:22:56;;;;;;;4.37;2.77;;;18.00;1.00;;;;;;5027371;28;20205;-49
2021/05/10 12:25:34;;;;;;;4.13;2.80;;;18.00;53.80;;;;;;5034163;28;20197;-49
2021/05/10 12:28:11;;;;;;;3.10;2.80;;;17.80;42.10;;;;;;5028866;28;20333;-49
2021/05/10 12:30:51;;;;;;;4.13;3.00;;;17.80;16.60;;;;;;5028402;28;20353;-49
2021/05/10 12:33:21;;;;;;;5.10;3.53;;;18.00;99.90;;;;;;5025521;28;20258;-50
2021/05/10 12:35:49;;;;;;;3.83;2.57;;;18.20;1.00;;;;;;5029942;28;20346;-49
2021/05/10 12:38:36;;;;;;;3.77;3.33;;;18.40;1.00;;;;;;5028562;28;20614;-50
2021/05/10 12:41:08;;;;;;;2.93;2.63;;;18.30;99.90;;;;;;5028245;28;20300;-49
2021/05/10 12:43:48;;;;;;;4.17;2.73;;;18.20;99.90;;;;;;5029851;28;20261;-49
2021/05/10 12:46:20;;;;;;;6.10;2.67;;;18.20;1.00;;;;;;5032118;28;20211;-52
2021/05/10 12:48:48;;;;;;;4.33;2.53;;;18.40;1.00;;;;;;5030607;28;20210;-50
2021/05/10 12:51:24;;;;;;;4.67;2.97;;;18.40;1.00;;;;;;5026439;28;20234;-50
2021/05/10 12:54:03;;;;;;;3.60;2.13;;;18.60;1.00;;;;;;5029364;28;20313;-50
2021/05/10 12:56:41;;;;;;;2.97;1.30;;;19.00;1.00;;;;;;5033413;28;20298;-50
2021/05/10 12:59:07;;;;;;;2.83;1.10;;;19.10;1.00;;;;;;5023458;28;20204;-49
2021/05/10 13:01:34;;;;;;;4.40;1.10;;;19.20;1.00;;;;;;5028488;28;20302;-49
2021/05/10 13:04:06;;;;;;;4.13;1.40;;;19.10;1.00;;;;;;5021047;28;20291;-49
2021/05/10 13:06:35;;;;;;;2.53;1.60;;;18.80;1.00;;;;;;5026844;28;20797;-49
2021/05/10 13:09:04;;;;;;;4.10;1.20;;;19.00;1.00;;;;;;5019480;28;20327;-49
2021/05/10 13:11:43;;;;;;;3.80;1.10;;;19.50;1.00;;;;;;5021820;28;20212;-52
2021/05/10 13:14:19;;;;;;;2.80;1.07;;;19.80;1.00;;;;;;5018829;28;20323;-49